KASE/ASE METAR and TAF weather

Enter ICAO airport designator
Station Type Date Time Source
KASE METAR 2021/09/24 02:53 UTC NOAA

KASE 240253Z AUTO 14009KT 10SM BKN110 16/00 A3028 RMK AO2 SLP152 T01560000 51024


Station Type Date Time Source
KASE Decoded METAR 2021/09/24 02:53 UTC NOAA

ASPEN-PITKIN COUNTY AIRPORT, CO, United States (KASE) 39-14N 106-52W 2354M
Sep 23, 2021 - 10:53 PM EDT / 2021.09.24 0253 UTC
Wind: from the SE (140 degrees) at 10 MPH (9 KT):0
Visibility: 10 mile(s):0
Sky conditions: mostly cloudy
Temperature: 60.1 F (15.6 C)
Dew Point: 32.0 F (0.0 C)
Relative Humidity: 34%
Pressure (altimeter): 30.28 in. Hg (1025 hPa)
Pressure tendency: 0.07 inches (2.4 hPa) higher than three hours ago
ob: KASE 240253Z AUTO 14009KT 10SM BKN110 16/00 A3028 RMK AO2 SLP152 T01560000 51024
cycle: 3

Station Type Date Time Source
KASE TAF 2021/09/23 18:33 UTC NOAA

TAF KASE 231731Z 2318/2418 36007KT P6SM FEW120
FM232200 31010G17KT P6SM VCSH SCT100 SCT200
FM240200 21008KT P6SM SCT120 SCT180
FM241200 18004KT P6SM SKC

Example: see airport list